Time;durP1;ratioP1;P1;durP2;ratioP2;P2;SDS_P1;SDS_P2;PMS_P1;PMS_P2;Temp;Humidity;BMP_temperature;BMP_pressure;BME280_temperature;BME280_humidity;BME280_pressure;Samples;Min_cycle;Max_cycle;Signal;HPM_P1;HPM_P2
2022/10/22 00:00:05;;;;;;;1.00;0.60;;;14.20;79.90;;;;;;5106764;28;20035;-66
2022/10/22 00:02:31;;;;;;;2.53;0.88;;;14.20;79.80;;;;;;5091589;28;20388;-66
2022/10/22 00:04:56;;;;;;;0.85;0.57;;;14.20;79.80;;;;;;5101887;28;20040;-66
2022/10/22 00:07:22;;;;;;;1.98;0.80;;;14.20;79.80;;;;;;5092540;28;20070;-66
2022/10/22 00:09:48;;;;;;;1.67;1.00;;;14.20;79.80;;;;;;5108914;28;20411;-66
2022/10/22 00:12:15;;;;;;;3.40;0.88;;;14.10;79.70;;;;;;5094345;28;20051;-66
2022/10/22 00:14:41;;;;;;;1.45;0.63;;;14.10;79.70;;;;;;5106338;28;20417;-66
2022/10/22 00:17:06;;;;;;;3.33;0.95;;;14.10;79.70;;;;;;5096848;28;20016;-66
2022/10/22 00:19:32;;;;;;;1.05;0.80;;;14.10;79.60;;;;;;5098596;28;20486;-66
2022/10/22 00:21:58;;;;;;;0.95;0.70;;;14.10;79.60;;;;;;5110850;28;20463;-66
2022/10/22 00:24:24;;;;;;;1.60;0.85;;;14.10;79.70;;;;;;5102305;28;20036;-66
2022/10/22 00:26:50;;;;;;;0.95;0.82;;;14.10;79.70;;;;;;5107425;28;20299;-66
2022/10/22 00:29:19;;;;;;;0.55;0.55;;;14.10;79.80;;;;;;5086643;28;20056;-66
2022/10/22 00:31:48;;;;;;;1.45;0.70;;;14.10;79.70;;;;;;5108155;28;20483;-66
2022/10/22 00:34:20;;;;;;;0.98;0.85;;;14.00;79.70;;;;;;5110962;28;20034;-66
2022/10/22 00:36:46;;;;;;;9.73;0.73;;;14.00;79.80;;;;;;5111880;28;20035;-66
2022/10/22 00:39:15;;;;;;;0.93;0.73;;;14.00;79.90;;;;;;5099152;28;20131;-66
2022/10/22 00:41:42;;;;;;;1.15;0.77;;;13.90;79.80;;;;;;5105484;28;20050;-66
2022/10/22 00:44:46;;;;;;;1.65;0.80;;;13.90;79.80;;;;;;5101887;28;20092;-66
2022/10/22 00:47:13;;;;;;;3.78;0.70;;;14.00;79.70;;;;;;5102742;28;20052;-67
2022/10/22 00:49:39;;;;;;;1.40;0.75;;;13.90;80.00;;;;;;5099623;28;20482;-67
2022/10/22 00:52:05;;;;;;;1.05;0.75;;;13.90;80.00;;;;;;5111858;28;20032;-72
2022/10/22 00:54:32;;;;;;;0.77;0.77;;;13.80;80.00;;;;;;5106217;28;20042;-72
2022/10/22 00:56:58;;;;;;;1.27;0.88;;;13.90;80.10;;;;;;5110304;28;20067;-72
2022/10/22 00:59:23;;;;;;;0.82;0.82;;;13.90;80.10;;;;;;5111501;28;20063;-72
2022/10/22 01:01:51;;;;;;;2.55;1.00;;;13.90;80.10;;;;;;5111286;28;20023;-72
2022/10/22 01:04:18;;;;;;;1.42;0.80;;;13.90;80.10;;;;;;5107899;28;20024;-72
2022/10/22 01:06:44;;;;;;;1.10;0.90;;;13.90;80.20;;;;;;5112651;27;20477;-72
2022/10/22 01:09:12;;;;;;;2.42;1.15;;;13.90;80.20;;;;;;5111063;28;20031;-72
2022/10/22 01:11:55;;;;;;;3.53;0.82;;;13.90;80.10;;;;;;5098456;28;20031;-72
2022/10/22 01:14:27;;;;;;;1.52;0.77;;;13.90;80.00;;;;;;5103721;28;20032;-72
2022/10/22 01:17:12;;;;;;;0.68;0.40;;;13.80;80.10;;;;;;5099397;28;20364;-72
2022/10/22 01:20:30;;;;;;;1.25;1.02;;;13.80;80.20;;;;;;5097907;28;20127;-72
2022/10/22 01:23:28;;;;;;;1.50;0.85;;;13.80;80.10;;;;;;5087859;27;20054;-66
2022/10/22 01:26:05;;;;;;;0.77;0.70;;;13.80;80.10;;;;;;5110848;28;20031;-66
2022/10/22 01:28:48;;;;;;;3.55;0.95;;;13.70;80.20;;;;;;5111083;28;20131;-66
2022/10/22 01:31:16;;;;;;;1.45;1.13;;;13.70;80.20;;;;;;5104802;28;20033;-66
2022/10/22 01:33:44;;;;;;;1.20;0.90;;;13.70;80.30;;;;;;5108608;28;20679;-67
2022/10/22 01:36:11;;;;;;;1.50;0.98;;;13.70;80.30;;;;;;5109432;28;20447;-66
2022/10/22 01:38:40;;;;;;;1.27;0.85;;;13.70;80.30;;;;;;5104707;28;20033;-66
2022/10/22 01:41:06;;;;;;;2.10;1.20;;;13.60;80.30;;;;;;5110387;28;20031;-66
2022/10/22 01:43:32;;;;;;;1.10;0.98;;;13.70;80.40;;;;;;5106508;28;20028;-66
2022/10/22 01:46:01;;;;;;;1.25;0.90;;;13.60;80.40;;;;;;5110239;28;20100;-66
2022/10/22 01:49:01;;;;;;;1.35;0.95;;;13.60;80.40;;;;;;5110719;28;20062;-66
2022/10/22 01:51:59;;;;;;;1.20;0.88;;;13.60;80.30;;;;;;5110333;28;20038;-66
2022/10/22 01:54:45;;;;;;;2.85;1.20;;;13.60;80.40;;;;;;5085109;28;20365;-66
2022/10/22 01:57:52;;;;;;;2.10;0.82;;;13.60;80.40;;;;;;5086735;28;20036;-72
2022/10/22 02:00:18;;;;;;;4.72;1.15;;;13.50;80.40;;;;;;5046093;28;20060;-72
2022/10/22 02:02:55;;;;;;;1.63;1.15;;;13.40;80.40;;;;;;5101944;28;20047;-66
2022/10/22 02:05:39;;;;;;;2.10;1.10;;;13.40;80.40;;;;;;5097739;28;20028;-72
2022/10/22 02:08:10;;;;;;;2.08;1.38;;;13.40;80.40;;;;;;5103895;28;20462;-67
2022/10/22 02:10:39;;;;;;;1.27;0.80;;;13.40;80.50;;;;;;5097015;28;20023;-72
2022/10/22 02:13:08;;;;;;;1.15;1.05;;;13.30;80.50;;;;;;5105735;28;20031;-72
2022/10/22 02:15:37;;;;;;;1.63;1.13;;;13.30;80.50;;;;;;5099730;28;20027;-72
2022/10/22 02:18:06;;;;;;;1.42;0.98;;;13.30;80.60;;;;;;5106221;28;20027;-72
2022/10/22 02:20:35;;;;;;;1.20;0.93;;;13.30;80.60;;;;;;5109192;28;20030;-72
2022/10/22 02:23:02;;;;;;;1.65;1.05;;;13.30;80.60;;;;;;5110465;28;20119;-72
2022/10/22 02:25:34;;;;;;;2.20;1.27;;;13.30;80.60;;;;;;5102958;28;20036;-72
2022/10/22 02:28:15;;;;;;;;;;;13.30;80.80;;;;;;5081965;28;20136;-67
2022/10/22 02:30:45;;;;;;;1.55;1.20;;;13.20;80.90;;;;;;5076531;28;19920;-71
2022/10/22 02:33:17;;;;;;;0.65;0.65;;;13.20;81.10;;;;;;5098709;28;20023;-72
2022/10/22 02:35:43;;;;;;;0.77;0.77;;;13.20;81.00;;;;;;5106407;28;20016;-67
2022/10/22 02:38:10;;;;;;;1.45;1.08;;;13.20;81.00;;;;;;5095785;28;20036;-66
2022/10/22 02:40:36;;;;;;;0.80;0.80;;;13.20;81.00;;;;;;5108586;28;20436;-66
2022/10/22 02:43:04;;;;;;;2.17;1.40;;;13.30;81.00;;;;;;5110429;28;20028;-66
2022/10/22 02:45:31;;;;;;;0.93;0.90;;;13.30;81.00;;;;;;5109680;28;20592;-72
2022/10/22 02:47:57;;;;;;;0.80;0.80;;;13.30;81.00;;;;;;5104627;28;20039;-72
2022/10/22 02:50:22;;;;;;;1.65;1.02;;;13.30;81.00;;;;;;5111119;28;20028;-72
2022/10/22 02:52:48;;;;;;;5.78;1.60;;;13.30;81.00;;;;;;5104647;28;20155;-72
2022/10/22 02:55:13;;;;;;;1.00;0.90;;;13.30;81.00;;;;;;5114139;28;20084;-66
2022/10/22 02:57:39;;;;;;;1.33;1.00;;;13.30;81.10;;;;;;5114010;28;20039;-66
2022/10/22 03:00:06;;;;;;;1.73;0.80;;;13.30;81.10;;;;;;5113231;28;20032;-66
2022/10/22 03:02:32;;;;;;;4.03;1.90;;;13.30;81.10;;;;;;5107235;28;20035;-72
2022/10/22 03:04:57;;;;;;;2.00;1.35;;;13.30;81.10;;;;;;5110902;28;20100;-72
2022/10/22 03:07:23;;;;;;;2.00;1.38;;;13.30;81.10;;;;;;5102710;28;20436;-72
2022/10/22 03:09:49;;;;;;;1.33;0.98;;;13.30;81.10;;;;;;5110174;28;20081;-72
2022/10/22 03:12:14;;;;;;;0.98;0.88;;;13.30;81.10;;;;;;5113164;28;20096;-72
2022/10/22 03:14:40;;;;;;;2.35;1.15;;;13.30;81.10;;;;;;5094343;28;20039;-72
2022/10/22 03:17:06;;;;;;;1.95;1.33;;;13.30;81.10;;;;;;5111123;28;20123;-72
2022/10/22 03:19:32;;;;;;;1.73;1.38;;;13.30;81.10;;;;;;5112456;28;20050;-72
2022/10/22 03:22:04;;;;;;;1.83;0.90;;;13.30;81.10;;;;;;5102485;28;20036;-72
2022/10/22 03:24:37;;;;;;;;;;;13.30;81.10;;;;;;5098579;28;20024;-72
2022/10/22 03:27:03;;;;;;;3.60;1.30;;;13.20;81.00;;;;;;5113036;28;20002;-72
2022/10/22 03:29:31;;;;;;;1.80;1.35;;;13.20;81.20;;;;;;5112686;28;20571;-72
2022/10/22 03:31:57;;;;;;;2.65;1.10;;;13.20;81.10;;;;;;5110043;28;20023;-72
2022/10/22 03:34:23;;;;;;;1.65;1.35;;;13.20;81.20;;;;;;5094101;28;20035;-72
2022/10/22 03:36:50;;;;;;;2.15;1.38;;;13.20;81.20;;;;;;5109236;28;20042;-72
2022/10/22 03:39:18;;;;;;;3.42;1.30;;;13.20;81.30;;;;;;5107117;28;20039;-72
2022/10/22 03:41:45;;;;;;;1.08;1.05;;;13.20;81.50;;;;;;5111767;28;20032;-72
2022/10/22 03:44:11;;;;;;;5.28;1.05;;;13.20;81.50;;;;;;5112476;28;20106;-72
2022/10/22 03:46:37;;;;;;;0.93;0.90;;;13.20;81.60;;;;;;5103669;28;20402;-72
2022/10/22 03:49:02;;;;;;;1.75;1.27;;;13.20;81.70;;;;;;5111230;28;20020;-72
2022/10/22 03:51:29;;;;;;;3.60;1.13;;;13.20;81.80;;;;;;5093508;28;20016;-72
2022/10/22 03:53:54;;;;;;;2.60;1.40;;;13.20;81.80;;;;;;5112089;28;20565;-72
2022/10/22 03:56:20;;;;;;;1.98;1.33;;;13.20;81.80;;;;;;5098826;28;20039;-72
2022/10/22 03:58:46;;;;;;;1.67;1.40;;;13.20;81.90;;;;;;5081327;28;20040;-72
2022/10/22 04:01:13;;;;;;;2.55;1.15;;;13.20;81.80;;;;;;5108354;28;20034;-72
2022/10/22 04:03:39;;;;;;;4.20;1.05;;;13.20;81.80;;;;;;5111859;28;20047;-72
2022/10/22 04:06:08;;;;;;;2.97;1.25;;;13.20;81.70;;;;;;5104250;28;20123;-72
2022/10/22 04:08:34;;;;;;;1.77;1.02;;;13.20;81.70;;;;;;5112128;28;20507;-72
2022/10/22 04:11:00;;;;;;;1.83;1.15;;;13.10;81.80;;;;;;5103258;28;20466;-72
2022/10/22 04:13:26;;;;;;;1.40;1.30;;;13.10;81.90;;;;;;5111516;28;20028;-72
2022/10/22 04:15:51;;;;;;;1.02;0.93;;;13.10;81.90;;;;;;5111759;28;20030;-72
2022/10/22 04:18:19;;;;;;;1.15;0.90;;;13.10;82.00;;;;;;5093416;28;20082;-72
2022/10/22 04:20:45;;;;;;;1.88;1.27;;;13.00;82.00;;;;;;5106425;28;20051;-72
2022/10/22 04:23:11;;;;;;;2.10;0.82;;;13.00;82.10;;;;;;5107105;28;20062;-72
2022/10/22 04:25:37;;;;;;;2.00;1.48;;;13.00;82.20;;;;;;5094159;28;20383;-72
2022/10/22 04:28:07;;;;;;;2.03;1.00;;;13.00;82.10;;;;;;5090514;28;20028;-72
2022/10/22 04:30:33;;;;;;;0.73;0.73;;;13.00;82.20;;;;;;5089938;28;20019;-72
2022/10/22 04:32:58;;;;;;;1.27;1.17;;;13.00;82.30;;;;;;5090176;28;20035;-72
2022/10/22 04:35:24;;;;;;;1.30;0.90;;;13.00;82.30;;;;;;5089471;28;20482;-72
2022/10/22 04:37:50;;;;;;;3.22;1.23;;;12.90;82.30;;;;;;5090179;28;20036;-72
2022/10/22 04:40:15;;;;;;;1.25;0.85;;;12.90;82.40;;;;;;5089377;28;20118;-72
2022/10/22 04:42:41;;;;;;;1.48;1.00;;;12.90;82.40;;;;;;5088740;28;20055;-72
2022/10/22 04:45:07;;;;;;;3.80;1.52;;;12.90;82.50;;;;;;5089095;28;20084;-72
2022/10/22 04:47:33;;;;;;;1.48;1.00;;;12.90;82.40;;;;;;5083537;28;20052;-72
2022/10/22 04:49:58;;;;;;;1.10;1.00;;;12.90;82.40;;;;;;5097579;28;20031;-72
2022/10/22 04:52:24;;;;;;;2.17;0.90;;;12.90;82.40;;;;;;5105424;28;20043;-66
2022/10/22 04:54:49;;;;;;;2.72;1.30;;;12.90;82.30;;;;;;5111648;28;20360;-67
2022/10/22 04:57:15;;;;;;;2.13;0.90;;;12.90;82.20;;;;;;5099112;28;20036;-66
2022/10/22 04:59:41;;;;;;;1.50;1.10;;;12.90;82.10;;;;;;5109777;28;20121;-66
2022/10/22 05:02:06;;;;;;;1.27;1.13;;;12.90;82.10;;;;;;5103042;28;20088;-66
2022/10/22 05:04:32;;;;;;;1.20;0.90;;;12.90;82.00;;;;;;5110369;28;20020;-66
2022/10/22 05:06:58;;;;;;;1.92;1.27;;;12.90;82.00;;;;;;5102940;28;20065;-66
2022/10/22 05:09:23;;;;;;;1.17;1.00;;;12.90;82.00;;;;;;5110381;28;20054;-67
2022/10/22 05:11:50;;;;;;;1.25;1.02;;;12.90;82.00;;;;;;5097097;28;20025;-66
2022/10/22 05:14:19;;;;;;;1.13;0.77;;;12.80;81.90;;;;;;5099374;28;20030;-66
2022/10/22 05:16:46;;;;;;;1.23;1.13;;;12.80;81.90;;;;;;5101947;28;20035;-66
2022/10/22 05:19:22;;;;;;;2.35;1.65;;;12.80;81.90;;;;;;5101254;28;20039;-66
2022/10/22 05:21:48;;;;;;;1.38;0.90;;;12.80;81.80;;;;;;5102873;28;20024;-66
2022/10/22 05:24:14;;;;;;;1.40;0.80;;;12.80;81.90;;;;;;5101505;28;20092;-66
2022/10/22 05:26:40;;;;;;;1.30;0.75;;;12.70;81.90;;;;;;5110931;28;20204;-72
2022/10/22 05:29:06;;;;;;;1.02;0.88;;;12.70;81.90;;;;;;5101807;28;20132;-72
2022/10/22 05:31:32;;;;;;;1.20;0.63;;;12.70;81.80;;;;;;5086824;28;20028;-72
2022/10/22 05:33:57;;;;;;;13.10;1.10;;;12.70;81.80;;;;;;5094654;28;20161;-72
2022/10/22 05:36:23;;;;;;;1.48;1.00;;;12.70;81.80;;;;;;5111000;28;20039;-72
2022/10/22 05:38:49;;;;;;;1.90;1.23;;;12.60;81.90;;;;;;5110851;28;20047;-73
2022/10/22 05:41:17;;;;;;;7.22;1.35;;;12.60;81.90;;;;;;5110603;28;20036;-66
2022/10/22 05:43:43;;;;;;;0.80;0.80;;;12.60;81.90;;;;;;5104627;28;20035;-66
2022/10/22 05:46:12;;;;;;;2.40;1.48;;;12.60;81.90;;;;;;5110450;28;20047;-72
2022/10/22 05:48:38;;;;;;;2.40;0.65;;;12.60;81.80;;;;;;5096775;28;20051;-72
2022/10/22 05:51:06;;;;;;;1.75;1.17;;;12.60;81.90;;;;;;5103416;28;20028;-66
2022/10/22 05:53:33;;;;;;;1.00;0.93;;;12.50;81.80;;;;;;5110736;28;20055;-66
2022/10/22 05:56:00;;;;;;;0.93;0.80;;;12.50;81.90;;;;;;5101991;28;20020;-66
2022/10/22 05:58:26;;;;;;;1.40;0.60;;;12.50;82.00;;;;;;5088787;28;20035;-66
2022/10/22 06:00:52;;;;;;;0.95;0.88;;;12.60;82.10;;;;;;5110071;28;20208;-66
2022/10/22 06:03:18;;;;;;;1.27;0.85;;;12.50;82.00;;;;;;5094361;28;20122;-66
2022/10/22 06:05:43;;;;;;;1.20;0.98;;;12.50;82.00;;;;;;5109974;28;20122;-66
2022/10/22 06:08:12;;;;;;;1.83;1.15;;;12.50;82.00;;;;;;5092019;28;20100;-66
2022/10/22 06:10:41;;;;;;;0.80;0.80;;;12.50;82.00;;;;;;5109924;28;20719;-73
2022/10/22 06:13:07;;;;;;;8.40;1.35;;;12.60;82.10;;;;;;5096491;28;20078;-73
2022/10/22 06:15:33;;;;;;;1.88;1.33;;;12.60;82.10;;;;;;5110275;28;20475;-73
2022/10/22 06:17:59;;;;;;;1.75;1.10;;;12.60;82.20;;;;;;5104939;28;20044;-73
2022/10/22 06:20:25;;;;;;;3.33;1.23;;;12.60;82.30;;;;;;5098386;28;20040;-66
2022/10/22 06:22:50;;;;;;;1.10;1.00;;;12.60;82.40;;;;;;5100242;28;20031;-67
2022/10/22 06:25:16;;;;;;;0.70;0.70;;;12.60;82.50;;;;;;5099626;28;20031;-67
2022/10/22 06:27:42;;;;;;;1.63;1.10;;;12.70;82.50;;;;;;5107894;28;20031;-67
2022/10/22 06:30:09;;;;;;;1.27;1.00;;;12.70;82.50;;;;;;5109553;28;20570;-66
2022/10/22 06:32:34;;;;;;;1.52;1.15;;;12.80;82.60;;;;;;5100929;28;20560;-66
2022/10/22 06:35:00;;;;;;;3.38;1.13;;;12.80;82.60;;;;;;5101478;28;20040;-66
2022/10/22 06:37:25;;;;;;;1.67;1.13;;;12.90;82.70;;;;;;5096944;28;20035;-66
2022/10/22 06:39:51;;;;;;;1.23;0.98;;;13.00;82.70;;;;;;5108225;28;20028;-66
2022/10/22 06:42:17;;;;;;;1.75;0.70;;;13.10;82.60;;;;;;5110101;28;20038;-73
2022/10/22 06:44:42;;;;;;;1.10;0.93;;;13.20;82.60;;;;;;5095617;28;20033;-73
2022/10/22 06:47:08;;;;;;;0.90;0.80;;;13.30;82.60;;;;;;5088723;28;20520;-73
2022/10/22 06:49:33;;;;;;;2.03;0.90;;;13.30;82.50;;;;;;5109220;28;20073;-66
2022/10/22 06:51:59;;;;;;;2.35;1.10;;;13.40;82.50;;;;;;5109802;28;20394;-66
2022/10/22 06:54:25;;;;;;;1.17;0.80;;;13.50;82.50;;;;;;5098747;28;20111;-66
2022/10/22 06:56:50;;;;;;;1.58;1.15;;;13.50;82.50;;;;;;5092748;28;20178;-66
2022/10/22 06:59:16;;;;;;;1.85;1.00;;;13.50;82.60;;;;;;5079988;28;20035;-66
2022/10/22 07:01:42;;;;;;;2.47;1.10;;;13.50;82.70;;;;;;5099803;28;20020;-66
2022/10/22 07:04:09;;;;;;;2.63;1.42;;;13.60;82.80;;;;;;5107650;28;20077;-66
2022/10/22 07:06:35;;;;;;;1.38;1.15;;;13.60;82.80;;;;;;5107971;28;20116;-72
2022/10/22 07:09:01;;;;;;;1.58;0.75;;;13.70;82.90;;;;;;5093525;28;20027;-73
2022/10/22 07:11:29;;;;;;;5.53;1.15;;;13.80;83.00;;;;;;5088859;28;20023;-72
2022/10/22 07:13:57;;;;;;;0.70;0.70;;;13.80;83.00;;;;;;5109604;28;20510;-73
2022/10/22 07:16:24;;;;;;;2.72;1.35;;;14.00;82.90;;;;;;5105139;28;20122;-72
2022/10/22 07:18:50;;;;;;;1.48;1.17;;;14.10;83.10;;;;;;5099473;28;20040;-73
2022/10/22 07:21:19;;;;;;;1.60;1.23;;;14.30;83.00;;;;;;5108938;28;20020;-73
2022/10/22 07:23:45;;;;;;;2.72;1.27;;;14.40;83.80;;;;;;5095789;28;20022;-73
2022/10/22 07:26:14;;;;;;;3.30;1.20;;;14.50;83.60;;;;;;5109489;28;20402;-73
2022/10/22 07:28:40;;;;;;;1.63;1.23;;;14.70;83.90;;;;;;5102943;28;20090;-73
2022/10/22 07:31:07;;;;;;;2.97;1.40;;;14.70;83.60;;;;;;5109779;28;20028;-73
2022/10/22 07:33:34;;;;;;;3.10;1.27;;;14.80;83.50;;;;;;5113283;28;20087;-73
2022/10/22 07:36:01;;;;;;;1.80;1.23;;;14.90;83.40;;;;;;5111887;28;20030;-73
2022/10/22 07:38:28;;;;;;;1.90;0.93;;;14.90;83.60;;;;;;5108517;28;20148;-73
2022/10/22 07:40:54;;;;;;;2.40;0.90;;;15.00;83.70;;;;;;5093535;28;20159;-72
2022/10/22 07:43:20;;;;;;;3.00;1.65;;;15.00;83.50;;;;;;5086627;28;20043;-72
2022/10/22 07:45:45;;;;;;;2.42;1.33;;;15.00;83.60;;;;;;5106690;28;20103;-66
2022/10/22 07:48:12;;;;;;;4.82;1.05;;;15.00;83.90;;;;;;5104402;28;20105;-66
2022/10/22 07:50:38;;;;;;;1.92;1.10;;;15.10;84.30;;;;;;5109359;28;20060;-66
2022/10/22 07:53:04;;;;;;;4.35;1.52;;;15.20;84.10;;;;;;5107654;28;20115;-66
2022/10/22 07:55:30;;;;;;;1.20;0.80;;;15.20;84.10;;;;;;5111172;27;20035;-66
2022/10/22 07:57:55;;;;;;;2.53;1.00;;;15.30;84.00;;;;;;5101059;28;20126;-67
2022/10/22 08:00:21;;;;;;;1.30;0.80;;;15.40;83.80;;;;;;5097820;28;20101;-65
2022/10/22 08:02:47;;;;;;;2.72;1.35;;;15.40;83.60;;;;;;5101061;28;20028;-71
2022/10/22 08:05:12;;;;;;;1.85;1.05;;;15.40;83.60;;;;;;5091080;28;20044;-73
2022/10/22 08:07:39;;;;;;;1.02;0.82;;;15.50;83.70;;;;;;5087057;28;20215;-73
2022/10/22 08:10:06;;;;;;;2.05;1.30;;;15.50;83.70;;;;;;5081587;28;20435;-67
2022/10/22 08:12:32;;;;;;;2.30;1.25;;;15.50;83.80;;;;;;5102599;28;20409;-71
2022/10/22 08:14:59;;;;;;;1.40;0.80;;;15.60;84.30;;;;;;5108979;28;20088;-71
2022/10/22 08:17:25;;;;;;;2.83;1.00;;;15.60;84.20;;;;;;5102868;28;20040;-72
2022/10/22 08:19:51;;;;;;;2.40;1.48;;;15.70;84.60;;;;;;5096179;28;20038;-72
2022/10/22 08:22:17;;;;;;;1.05;0.95;;;15.80;84.30;;;;;;5112664;28;20023;-71
2022/10/22 08:24:42;;;;;;;2.63;1.38;;;15.80;84.30;;;;;;5107168;28;20023;-71
2022/10/22 08:27:08;;;;;;;1.27;0.80;;;15.90;84.20;;;;;;5112392;28;20390;-72
2022/10/22 08:29:34;;;;;;;3.35;1.38;;;16.00;84.10;;;;;;5109443;28;20076;-73
2022/10/22 08:32:01;;;;;;;2.15;1.08;;;16.00;84.00;;;;;;5106707;28;20061;-72
2022/10/22 08:34:27;;;;;;;5.05;1.25;;;16.00;83.90;;;;;;5100461;28;20537;-72
2022/10/22 08:36:53;;;;;;;4.55;1.52;;;16.00;83.80;;;;;;5110806;28;20031;-72
2022/10/22 08:39:19;;;;;;;2.17;1.55;;;16.00;84.10;;;;;;5111551;28;20032;-65
2022/10/22 08:42:19;;;;;;;8.30;1.45;;;16.00;84.10;;;;;;5112171;28;20376;-65
2022/10/22 08:44:58;;;;;;;5.97;1.35;;;16.10;84.20;;;;;;5111347;28;20028;-65
2022/10/22 08:47:36;;;;;;;1.95;1.20;;;16.10;84.10;;;;;;5096639;28;20066;-66
2022/10/22 08:50:02;;;;;;;2.45;1.02;;;16.10;84.30;;;;;;5108429;28;20095;-65
2022/10/22 08:52:30;;;;;;;1.58;1.20;;;16.20;84.10;;;;;;5111779;28;20110;-65
2022/10/22 08:54:58;;;;;;;4.20;0.77;;;16.30;84.00;;;;;;5109677;28;20027;-65
2022/10/22 08:57:39;;;;;;;1.88;1.33;;;16.40;83.60;;;;;;5087089;28;20020;-72
2022/10/22 09:00:22;;;;;;;3.72;0.90;;;16.40;83.70;;;;;;5105336;28;20424;-65
2022/10/22 09:03:02;;;;;;;1.38;0.90;;;16.50;83.70;;;;;;5107751;28;20016;-72
2022/10/22 09:05:52;;;;;;;3.30;1.10;;;16.50;83.60;;;;;;5110847;28;20054;-66
2022/10/22 09:08:19;;;;;;;4.00;0.90;;;16.50;83.50;;;;;;5096519;28;20032;-66
2022/10/22 09:10:57;;;;;;;4.00;1.65;;;16.50;83.70;;;;;;5102583;28;20030;-72
2022/10/22 09:13:23;;;;;;;2.47;0.90;;;16.50;83.70;;;;;;5106166;28;20481;-72
2022/10/22 09:16:14;;;;;;;4.60;1.63;;;16.50;83.70;;;;;;5111300;28;20032;-72
2022/10/22 09:19:02;;;;;;;2.75;1.27;;;16.50;83.70;;;;;;5088741;28;20086;-71
2022/10/22 09:21:40;;;;;;;1.42;1.15;;;16.50;83.70;;;;;;5095287;28;20031;-71
2022/10/22 09:24:15;;;;;;;2.80;0.90;;;16.50;83.80;;;;;;5110985;28;20463;-72
2022/10/22 09:26:41;;;;;;;1.63;0.93;;;16.50;83.80;;;;;;5096831;28;20115;-71
2022/10/22 09:29:17;;;;;;;2.97;1.23;;;16.50;83.80;;;;;;5097789;28;20106;-72
2022/10/22 09:31:43;;;;;;;2.05;0.80;;;16.50;84.10;;;;;;5111276;28;20076;-72
2022/10/22 09:34:08;;;;;;;0.93;0.80;;;16.50;84.20;;;;;;5110089;28;20032;-72
2022/10/22 09:36:36;;;;;;;4.63;1.25;;;16.40;84.10;;;;;;5090162;28;20099;-65
2022/10/22 09:39:03;;;;;;;0.88;0.47;;;16.50;84.10;;;;;;5101521;28;20085;-65
2022/10/22 09:41:29;;;;;;;1.23;0.95;;;16.50;84.10;;;;;;5103113;28;20390;-72
2022/10/22 09:43:55;;;;;;;2.55;1.30;;;16.50;84.40;;;;;;5105665;28;20031;-72
2022/10/22 09:46:23;;;;;;;0.80;0.73;;;16.50;84.50;;;;;;5101212;28;20151;-72
2022/10/22 09:49:11;;;;;;;1.95;1.27;;;16.40;84.70;;;;;;5099809;28;20032;-71
2022/10/22 09:51:53;;;;;;;3.85;1.27;;;16.50;84.70;;;;;;5100943;28;20030;-71
2022/10/22 09:54:22;;;;;;;2.70;0.88;;;16.50;84.80;;;;;;5103559;28;20077;-72
2022/10/22 09:57:05;;;;;;;2.63;1.38;;;16.50;85.40;;;;;;5090385;28;20344;-72
2022/10/22 09:59:40;;;;;;;3.78;1.70;;;16.60;84.80;;;;;;5092745;28;20046;-65
2022/10/22 10:02:17;;;;;;;2.22;0.70;;;16.60;84.90;;;;;;5109918;28;20466;-65
2022/10/22 10:04:47;;;;;;;1.98;0.80;;;16.60;84.80;;;;;;5109209;28;20032;-65
2022/10/22 10:07:24;;;;;;;1.70;1.00;;;16.60;84.70;;;;;;5108131;28;20027;-65
2022/10/22 10:09:52;;;;;;;4.63;0.98;;;16.70;84.70;;;;;;5109056;28;20015;-66
2022/10/22 10:12:39;;;;;;;0.80;0.75;;;16.70;84.60;;;;;;5101124;28;20111;-66
2022/10/22 10:15:29;;;;;;;3.28;0.98;;;16.80;84.60;;;;;;5101446;28;20031;-66
2022/10/22 10:18:18;;;;;;;2.35;0.77;;;16.90;84.40;;;;;;5108860;28;20409;-66
2022/10/22 10:20:48;;;;;;;1.85;0.90;;;16.90;84.20;;;;;;5094269;28;20028;-66
2022/10/22 10:23:23;;;;;;;3.70;1.38;;;17.00;84.00;;;;;;5094000;28;20035;-66
2022/10/22 10:26:08;;;;;;;8.88;1.38;;;17.00;83.90;;;;;;5088434;28;20031;-66
2022/10/22 10:29:08;;;;;;;1.10;1.00;;;17.10;83.90;;;;;;5109054;28;20493;-72
2022/10/22 10:31:57;;;;;;;2.22;1.00;;;17.10;83.90;;;;;;5094998;28;20032;-72
2022/10/22 10:34:42;;;;;;;5.70;1.30;;;17.10;83.70;;;;;;5099913;28;20356;-72
2022/10/22 10:37:28;;;;;;;3.25;0.90;;;17.10;83.50;;;;;;5090238;28;20158;-72
2022/10/22 10:40:02;;;;;;;3.28;1.20;;;17.20;83.50;;;;;;5106357;28;20016;-66
2022/10/22 10:43:03;;;;;;;2.20;1.15;;;17.10;83.40;;;;;;5093262;28;20028;-72
2022/10/22 10:45:31;;;;;;;1.35;1.20;;;17.20;83.30;;;;;;5096178;28;20024;-72
2022/10/22 10:48:22;;;;;;;2.25;1.25;;;17.20;83.30;;;;;;5097845;28;20383;-72
2022/10/22 10:51:13;;;;;;;1.95;1.10;;;17.10;83.30;;;;;;5098204;28;20028;-72
2022/10/22 10:54:03;;;;;;;1.52;1.05;;;17.10;83.40;;;;;;5094484;28;20020;-66
2022/10/22 10:56:42;;;;;;;2.70;0.80;;;17.20;83.40;;;;;;5088282;28;20028;-72
2022/10/22 10:59:29;;;;;;;1.33;1.17;;;17.30;83.20;;;;;;5089053;28;20089;-72
2022/10/22 11:02:01;;;;;;;2.60;0.98;;;17.50;82.90;;;;;;5098793;28;20032;-71
2022/10/22 11:04:45;;;;;;;;;;;17.70;82.50;;;;;;5092497;28;20036;-72
2022/10/22 11:07:17;;;;;;;4.35;1.85;;;17.80;82.00;;;;;;5086389;28;20321;-72
2022/10/22 11:09:53;;;;;;;0.75;0.70;;;18.00;81.50;;;;;;5085833;28;20083;-72
2022/10/22 11:12:35;;;;;;;1.73;1.20;;;18.20;81.00;;;;;;5095027;28;20020;-72
2022/10/22 11:15:31;;;;;;;3.33;1.23;;;18.40;80.20;;;;;;5096332;28;20030;-71
2022/10/22 11:18:07;;;;;;;1.83;0.93;;;18.60;79.80;;;;;;5097506;28;20509;-72
2022/10/22 11:20:51;;;;;;;1.70;1.42;;;18.70;79.80;;;;;;5090605;28;20020;-71
2022/10/22 11:23:35;;;;;;;2.72;1.70;;;19.10;79.20;;;;;;5090571;28;20115;-66
2022/10/22 11:26:03;;;;;;;5.18;1.38;;;19.50;78.10;;;;;;5091221;28;20028;-71
2022/10/22 11:28:37;;;;;;;4.28;1.40;;;19.80;77.10;;;;;;5092196;28;20043;-71
2022/10/22 11:31:11;;;;;;;1.17;1.08;;;19.80;75.90;;;;;;5093332;28;20425;-66
2022/10/22 11:34:04;;;;;;;2.35;1.45;;;19.80;75.60;;;;;;5095497;28;20015;-66
2022/10/22 11:36:32;;;;;;;3.75;1.30;;;19.70;75.50;;;;;;5096718;28;20161;-67
2022/10/22 11:38:57;;;;;;;1.10;1.00;;;19.50;75.40;;;;;;5090950;28;20024;-66
2022/10/22 11:41:26;;;;;;;2.20;0.95;;;19.50;75.80;;;;;;5092847;28;20051;-68
2022/10/22 11:44:03;;;;;;;6.75;1.25;;;19.50;74.90;;;;;;5106318;28;20034;-68
2022/10/22 11:46:46;;;;;;;2.88;1.02;;;19.50;74.80;;;;;;5090102;28;20558;-67
2022/10/22 11:49:14;;;;;;;1.35;1.00;;;19.60;74.80;;;;;;5092185;28;20064;-67
2022/10/22 11:51:42;;;;;;;4.78;1.08;;;19.50;74.30;;;;;;5113252;28;20020;-67
2022/10/22 11:54:28;;;;;;;2.53;1.20;;;19.50;74.50;;;;;;5098613;28;20196;-67
2022/10/22 11:57:14;;;;;;;3.45;1.42;;;19.40;73.80;;;;;;5102108;28;20038;-72
2022/10/22 11:59:40;;;;;;;1.42;0.80;;;19.30;73.50;;;;;;5112451;28;20023;-72
2022/10/22 12:02:27;;;;;;;8.57;1.10;;;19.20;74.00;;;;;;5109344;28;20027;-72
2022/10/22 12:05:17;;;;;;;1.45;0.70;;;19.10;74.40;;;;;;5106426;28;20498;-72
2022/10/22 12:07:55;;;;;;;3.33;0.50;;;19.30;74.90;;;;;;5105869;28;20023;-67
2022/10/22 12:10:26;;;;;;;2.53;0.93;;;19.40;74.50;;;;;;5112522;28;20020;-72
2022/10/22 12:12:56;;;;;;;4.45;1.27;;;19.30;74.00;;;;;;5098042;28;20025;-72
2022/10/22 12:15:26;;;;;;;0.98;0.88;;;19.20;74.10;;;;;;5112479;28;20081;-72
2022/10/22 12:18:00;;;;;;;1.40;0.93;;;19.10;74.20;;;;;;5106496;28;20502;-73
2022/10/22 12:20:26;;;;;;;0.85;0.77;;;19.20;74.50;;;;;;5106173;28;20531;-72
2022/10/22 12:22:53;;;;;;;3.67;1.40;;;19.90;73.40;;;;;;5099903;28;20364;-72
2022/10/22 12:25:24;;;;;;;0.95;0.75;;;20.30;70.80;;;;;;5106498;28;20032;-73
2022/10/22 12:27:59;;;;;;;2.15;0.85;;;20.50;70.40;;;;;;5096542;28;20035;-67
2022/10/22 12:30:35;;;;;;;3.30;1.00;;;21.30;69.10;;;;;;5111831;28;20040;-72
2022/10/22 12:33:04;;;;;;;1.40;0.98;;;22.10;67.40;;;;;;5103825;28;20028;-72
2022/10/22 12:35:34;;;;;;;3.78;0.93;;;22.50;65.70;;;;;;5105414;28;20035;-72
2022/10/22 12:38:04;;;;;;;1.27;0.80;;;22.20;65.40;;;;;;5088863;28;20383;-68
2022/10/22 12:40:34;;;;;;;4.53;0.90;;;21.60;66.40;;;;;;5104834;28;20024;-67
2022/10/22 12:43:04;;;;;;;1.30;0.90;;;20.90;67.30;;;;;;5098374;28;20036;-67
2022/10/22 12:45:33;;;;;;;2.42;1.17;;;20.30;68.30;;;;;;5105076;28;20024;-67
2022/10/22 12:48:01;;;;;;;0.95;0.70;;;19.90;69.90;;;;;;5091234;28;20391;-67
2022/10/22 12:50:41;;;;;;;3.08;1.35;;;19.50;70.70;;;;;;5103038;28;20475;-68
2022/10/22 12:53:26;;;;;;;3.80;0.55;;;19.30;71.50;;;;;;5105238;28;20022;-67
2022/10/22 12:55:54;;;;;;;2.05;1.00;;;19.10;71.90;;;;;;5097650;28;20028;-67
2022/10/22 12:58:26;;;;;;;0.95;0.70;;;19.10;72.40;;;;;;5109930;28;20027;-73
2022/10/22 13:00:57;;;;;;;5.65;0.90;;;19.10;72.30;;;;;;5111680;28;20020;-73
2022/10/22 13:03:34;;;;;;;3.22;1.10;;;19.30;72.40;;;;;;5106149;28;20064;-73
2022/10/22 13:06:17;;;;;;;4.90;0.75;;;19.60;71.50;;;;;;5095354;28;20491;-73